sensor_id;sensor_type;location;lat;lon;timestamp;pressure;altitude;pressure_sealevel;temperature;humidity
72124;BME280;59998;37.126;-8.538;2022-07-23T00:00:11;101235.6;;;28.0;29.9
72124;BME280;59998;37.126;-8.538;2022-07-23T00:04:58;101230.0;;;28.0;30.9
72124;BME280;59998;37.126;-8.538;2022-07-23T00:09:46;101232.4;;;28.1;30.7
72124;BME280;59998;37.126;-8.538;2022-07-23T00:14:33;101226.2;;;28.0;30.2
72124;BME280;59998;37.126;-8.538;2022-07-23T00:19:20;101217.2;;;27.9;29.8
72124;BME280;59998;37.126;-8.538;2022-07-23T00:24:06;101212.2;;;27.8;29.5
72124;BME280;59998;37.126;-8.538;2022-07-23T00:28:55;101206.4;;;27.7;29.8
72124;BME280;59998;37.126;-8.538;2022-07-23T00:33:41;101201.2;;;27.7;29.3
72124;BME280;59998;37.126;-8.538;2022-07-23T00:38:28;101202.9;;;27.7;29.3
72124;BME280;59998;37.126;-8.538;2022-07-23T00:43:16;101202.2;;;27.6;29.5
72124;BME280;59998;37.126;-8.538;2022-07-23T00:48:05;101200.6;;;27.6;29.4
72124;BME280;59998;37.126;-8.538;2022-07-23T00:52:52;101192.4;;;27.5;29.2
72124;BME280;59998;37.126;-8.538;2022-07-23T00:57:39;101193.6;;;27.5;29.3
72124;BME280;59998;37.126;-8.538;2022-07-23T01:02:26;101179.5;;;27.4;29.1
72124;BME280;59998;37.126;-8.538;2022-07-23T01:07:14;101185.8;;;27.4;29.0
72124;BME280;59998;37.126;-8.538;2022-07-23T01:12:00;101187.0;;;27.4;29.0
72124;BME280;59998;37.126;-8.538;2022-07-23T01:16:48;101185.4;;;27.4;29.4
72124;BME280;59998;37.126;-8.538;2022-07-23T01:21:37;101188.1;;;27.4;30.2
72124;BME280;59998;37.126;-8.538;2022-07-23T01:26:24;101185.4;;;27.4;31.1
72124;BME280;59998;37.126;-8.538;2022-07-23T01:31:10;101181.9;;;27.4;32.7
72124;BME280;59998;37.126;-8.538;2022-07-23T01:35:56;101180.4;;;27.3;31.9
72124;BME280;59998;37.126;-8.538;2022-07-23T01:40:42;101180.9;;;27.2;31.5
72124;BME280;59998;37.126;-8.538;2022-07-23T01:45:29;101177.0;;;27.2;31.5
72124;BME280;59998;37.126;-8.538;2022-07-23T01:50:15;101184.4;;;27.3;31.4
72124;BME280;59998;37.126;-8.538;2022-07-23T01:55:02;101170.5;;;27.3;30.0
72124;BME280;59998;37.126;-8.538;2022-07-23T01:59:48;101173.7;;;27.3;30.5
72124;BME280;59998;37.126;-8.538;2022-07-23T02:04:37;101178.1;;;27.2;31.3
72124;BME280;59998;37.126;-8.538;2022-07-23T02:09:23;101175.8;;;27.2;31.7
72124;BME280;59998;37.126;-8.538;2022-07-23T02:14:10;101168.3;;;27.2;32.5
72124;BME280;59998;37.126;-8.538;2022-07-23T02:18:56;101164.3;;;27.2;33.4
72124;BME280;59998;37.126;-8.538;2022-07-23T02:23:43;101169.1;;;27.2;33.9
72124;BME280;59998;37.126;-8.538;2022-07-23T02:28:29;101168.0;;;27.1;33.9
72124;BME280;59998;37.126;-8.538;2022-07-23T02:33:16;101167.6;;;27.1;34.1
72124;BME280;59998;37.126;-8.538;2022-07-23T02:38:02;101177.1;;;27.0;34.1
72124;BME280;59998;37.126;-8.538;2022-07-23T02:42:49;101167.7;;;27.0;34.6
72124;BME280;59998;37.126;-8.538;2022-07-23T02:47:34;101172.5;;;27.0;35.1
72124;BME280;59998;37.126;-8.538;2022-07-23T02:52:21;101175.6;;;27.0;35.3
72124;BME280;59998;37.126;-8.538;2022-07-23T02:57:09;101177.5;;;27.0;35.7
72124;BME280;59998;37.126;-8.538;2022-07-23T03:01:56;101176.3;;;27.0;35.8
72124;BME280;59998;37.126;-8.538;2022-07-23T03:06:42;101179.9;;;27.0;36.0
72124;BME280;59998;37.126;-8.538;2022-07-23T03:11:28;101187.8;;;27.0;36.4
72124;BME280;59998;37.126;-8.538;2022-07-23T03:16:15;101194.9;;;27.0;37.4
72124;BME280;59998;37.126;-8.538;2022-07-23T03:21:01;101182.8;;;26.9;37.8
72124;BME280;59998;37.126;-8.538;2022-07-23T03:25:48;101185.5;;;26.9;38.2
72124;BME280;59998;37.126;-8.538;2022-07-23T03:30:34;101180.8;;;26.8;38.6
72124;BME280;59998;37.126;-8.538;2022-07-23T03:35:20;101181.7;;;26.7;39.5
72124;BME280;59998;37.126;-8.538;2022-07-23T03:40:07;101187.2;;;26.7;39.3
72124;BME280;59998;37.126;-8.538;2022-07-23T03:44:54;101202.6;;;26.6;39.4
72124;BME280;59998;37.126;-8.538;2022-07-23T03:49:40;101193.9;;;26.7;39.5
72124;BME280;59998;37.126;-8.538;2022-07-23T03:54:27;101190.8;;;26.6;39.4
72124;BME280;59998;37.126;-8.538;2022-07-23T03:59:14;101184.6;;;26.6;39.0
72124;BME280;59998;37.126;-8.538;2022-07-23T04:04:00;101190.5;;;26.5;38.9
72124;BME280;59998;37.126;-8.538;2022-07-23T04:08:46;101191.0;;;26.4;39.0
72124;BME280;59998;37.126;-8.538;2022-07-23T04:13:32;101198.9;;;26.4;39.0
72124;BME280;59998;37.126;-8.538;2022-07-23T04:18:19;101197.7;;;26.4;38.9
72124;BME280;59998;37.126;-8.538;2022-07-23T04:23:05;101193.8;;;26.4;39.0
72124;BME280;59998;37.126;-8.538;2022-07-23T04:27:51;101199.3;;;26.4;39.3
72124;BME280;59998;37.126;-8.538;2022-07-23T04:32:38;101199.3;;;26.4;40.6
72124;BME280;59998;37.126;-8.538;2022-07-23T04:37:24;101198.1;;;26.3;41.5
72124;BME280;59998;37.126;-8.538;2022-07-23T04:42:11;101189.5;;;26.3;41.9
72124;BME280;59998;37.126;-8.538;2022-07-23T04:46:57;101195.8;;;26.2;41.7
72124;BME280;59998;37.126;-8.538;2022-07-23T04:51:43;101191.9;;;26.1;41.0
72124;BME280;59998;37.126;-8.538;2022-07-23T04:56:30;101204.5;;;26.0;40.2
72124;BME280;59998;37.126;-8.538;2022-07-23T05:01:18;101204.2;;;26.0;40.0
72124;BME280;59998;37.126;-8.538;2022-07-23T05:06:05;101208.9;;;26.1;39.6
72124;BME280;59998;37.126;-8.538;2022-07-23T05:10:51;101219.4;;;26.1;39.6
72124;BME280;59998;37.126;-8.538;2022-07-23T05:15:38;101210.8;;;26.2;38.8
72124;BME280;59998;37.126;-8.538;2022-07-23T05:20:24;101205.2;;;26.2;38.4
72124;BME280;59998;37.126;-8.538;2022-07-23T05:25:10;101210.0;;;26.1;37.9
72124;BME280;59998;37.126;-8.538;2022-07-23T05:29:57;101219.5;;;26.1;37.4
72124;BME280;59998;37.126;-8.538;2022-07-23T05:34:44;101214.4;;;26.1;36.3
72124;BME280;59998;37.126;-8.538;2022-07-23T05:39:30;101206.9;;;26.1;35.4
72124;BME280;59998;37.126;-8.538;2022-07-23T05:44:16;101213.2;;;26.1;35.2
72124;BME280;59998;37.126;-8.538;2022-07-23T05:49:02;101216.0;;;26.0;35.5
72124;BME280;59998;37.126;-8.538;2022-07-23T05:53:49;101230.1;;;26.0;35.7
72124;BME280;59998;37.126;-8.538;2022-07-23T05:58:35;101229.7;;;26.1;35.7
72124;BME280;59998;37.126;-8.538;2022-07-23T06:03:21;101230.1;;;26.1;35.9
72124;BME280;59998;37.126;-8.538;2022-07-23T06:08:08;101236.0;;;26.1;35.9
72124;BME280;59998;37.126;-8.538;2022-07-23T06:12:54;101240.0;;;26.0;36.4
72124;BME280;59998;37.126;-8.538;2022-07-23T06:17:40;101236.0;;;26.0;37.0
72124;BME280;59998;37.126;-8.538;2022-07-23T06:22:27;101238.8;;;26.0;38.8
72124;BME280;59998;37.126;-8.538;2022-07-23T06:27:13;101251.0;;;26.0;38.5
72124;BME280;59998;37.126;-8.538;2022-07-23T06:31:59;101257.6;;;26.1;38.6
72124;BME280;59998;37.126;-8.538;2022-07-23T06:36:46;101262.4;;;26.0;42.0
72124;BME280;59998;37.126;-8.538;2022-07-23T06:41:32;101258.1;;;26.0;43.0
72124;BME280;59998;37.126;-8.538;2022-07-23T06:46:19;101258.9;;;26.0;45.7
72124;BME280;59998;37.126;-8.538;2022-07-23T06:51:08;101253.4;;;25.9;46.1
72124;BME280;59998;37.126;-8.538;2022-07-23T06:55:54;101244.8;;;25.7;45.0
72124;BME280;59998;37.126;-8.538;2022-07-23T07:00:41;101247.6;;;25.7;43.4
72124;BME280;59998;37.126;-8.538;2022-07-23T07:05:27;101247.9;;;25.7;43.7
72124;BME280;59998;37.126;-8.538;2022-07-23T07:10:14;101254.6;;;25.8;44.8
72124;BME280;59998;37.126;-8.538;2022-07-23T07:15:00;101252.2;;;25.8;43.7
72124;BME280;59998;37.126;-8.538;2022-07-23T07:19:46;101263.2;;;25.9;43.0
72124;BME280;59998;37.126;-8.538;2022-07-23T07:24:33;101258.9;;;25.9;43.0
72124;BME280;59998;37.126;-8.538;2022-07-23T07:29:19;101260.0;;;26.0;42.7
72124;BME280;59998;37.126;-8.538;2022-07-23T07:34:07;101268.3;;;26.1;39.9
72124;BME280;59998;37.126;-8.538;2022-07-23T07:38:54;101276.9;;;26.2;39.0
72124;BME280;59998;37.126;-8.538;2022-07-23T07:43:40;101269.8;;;26.3;37.8
72124;BME280;59998;37.126;-8.538;2022-07-23T07:48:26;101273.2;;;26.4;37.2
72124;BME280;59998;37.126;-8.538;2022-07-23T07:53:13;101286.6;;;26.6;36.8
72124;BME280;59998;37.126;-8.538;2022-07-23T07:58:00;101283.3;;;26.7;36.2
72124;BME280;59998;37.126;-8.538;2022-07-23T08:02:48;101297.0;;;26.9;35.9
72124;BME280;59998;37.126;-8.538;2022-07-23T08:07:34;101290.3;;;27.0;36.3
72124;BME280;59998;37.126;-8.538;2022-07-23T08:12:21;101288.6;;;27.1;36.2
72124;BME280;59998;37.126;-8.538;2022-07-23T08:17:07;101297.2;;;27.2;36.1
72124;BME280;59998;37.126;-8.538;2022-07-23T08:21:53;101291.2;;;27.3;34.1
72124;BME280;59998;37.126;-8.538;2022-07-23T08:26:40;101287.9;;;27.4;33.4
72124;BME280;59998;37.126;-8.538;2022-07-23T08:31:26;101294.9;;;27.6;33.0
72124;BME280;59998;37.126;-8.538;2022-07-23T08:36:13;101296.0;;;27.7;31.8
72124;BME280;59998;37.126;-8.538;2022-07-23T08:40:59;101301.0;;;27.8;31.4
72124;BME280;59998;37.126;-8.538;2022-07-23T08:45:47;101294.5;;;27.9;31.9
72124;BME280;59998;37.126;-8.538;2022-07-23T08:50:34;101298.8;;;28.0;34.5
72124;BME280;59998;37.126;-8.538;2022-07-23T08:55:22;101303.0;;;28.1;30.0
72124;BME280;59998;37.126;-8.538;2022-07-23T09:00:09;101311.9;;;28.3;29.1
72124;BME280;59998;37.126;-8.538;2022-07-23T09:04:56;101311.3;;;28.5;29.5
72124;BME280;59998;37.126;-8.538;2022-07-23T09:09:44;101301.1;;;28.6;29.1
72124;BME280;59998;37.126;-8.538;2022-07-23T09:14:42;101303.0;;;28.7;28.3
72124;BME280;59998;37.126;-8.538;2022-07-23T09:19:29;101309.6;;;28.9;28.1
72124;BME280;59998;37.126;-8.538;2022-07-23T09:24:15;101311.3;;;29.0;26.6
72124;BME280;59998;37.126;-8.538;2022-07-23T09:29:04;101322.3;;;29.1;27.1
72124;BME280;59998;37.126;-8.538;2022-07-23T09:33:51;101316.7;;;29.1;27.1
72124;BME280;59998;37.126;-8.538;2022-07-23T09:38:50;101327.4;;;29.3;26.1
72124;BME280;59998;37.126;-8.538;2022-07-23T09:43:36;101328.8;;;29.5;26.4
72124;BME280;59998;37.126;-8.538;2022-07-23T09:48:23;101325.7;;;29.6;28.0
72124;BME280;59998;37.126;-8.538;2022-07-23T09:53:10;101334.1;;;29.8;27.9
72124;BME280;59998;37.126;-8.538;2022-07-23T09:58:04;101332.0;;;29.9;27.9
72124;BME280;59998;37.126;-8.538;2022-07-23T10:02:51;101331.2;;;29.9;28.0
72124;BME280;59998;37.126;-8.538;2022-07-23T10:07:39;101336.4;;;29.9;28.4
72124;BME280;59998;37.126;-8.538;2022-07-23T10:12:26;101340.6;;;29.7;28.9
72124;BME280;59998;37.126;-8.538;2022-07-23T10:17:13;101343.8;;;29.7;28.8
72124;BME280;59998;37.126;-8.538;2022-07-23T10:22:02;101340.8;;;29.6;29.7
72124;BME280;59998;37.126;-8.538;2022-07-23T10:26:54;101340.2;;;29.5;30.6
72124;BME280;59998;37.126;-8.538;2022-07-23T10:31:50;101349.3;;;29.5;29.9
72124;BME280;59998;37.126;-8.538;2022-07-23T10:36:42;101343.6;;;29.5;30.3
72124;BME280;59998;37.126;-8.538;2022-07-23T10:41:35;101338.8;;;29.6;30.8
72124;BME280;59998;37.126;-8.538;2022-07-23T10:46:25;101332.4;;;29.7;30.0
72124;BME280;59998;37.126;-8.538;2022-07-23T10:51:14;101345.3;;;29.7;29.7
72124;BME280;59998;37.126;-8.538;2022-07-23T10:56:00;101335.8;;;29.7;28.6
72124;BME280;59998;37.126;-8.538;2022-07-23T11:00:47;101333.7;;;29.8;29.0
72124;BME280;59998;37.126;-8.538;2022-07-23T11:05:43;101328.8;;;29.9;29.9
72124;BME280;59998;37.126;-8.538;2022-07-23T11:10:37;101333.1;;;29.9;30.9
72124;BME280;59998;37.126;-8.538;2022-07-23T11:15:24;101337.2;;;29.9;31.8
72124;BME280;59998;37.126;-8.538;2022-07-23T11:20:19;101339.6;;;29.8;33.1
72124;BME280;59998;37.126;-8.538;2022-07-23T11:25:06;101339.5;;;29.7;33.6
72124;BME280;59998;37.126;-8.538;2022-07-23T11:29:52;101336.4;;;29.6;33.2
72124;BME280;59998;37.126;-8.538;2022-07-23T11:34:41;101339.5;;;29.9;33.9
72124;BME280;59998;37.126;-8.538;2022-07-23T11:39:28;101346.6;;;30.1;32.4
72124;BME280;59998;37.126;-8.538;2022-07-23T11:44:26;101346.3;;;30.2;32.4
72124;BME280;59998;37.126;-8.538;2022-07-23T11:49:12;101336.9;;;30.4;32.4
72124;BME280;59998;37.126;-8.538;2022-07-23T11:54:06;101326.3;;;30.4;31.3
72124;BME280;59998;37.126;-8.538;2022-07-23T11:58:59;101331.7;;;30.4;29.1
72124;BME280;59998;37.126;-8.538;2022-07-23T12:03:51;101321.9;;;30.6;29.8
72124;BME280;59998;37.126;-8.538;2022-07-23T12:08:41;101313.6;;;30.7;28.3
72124;BME280;59998;37.126;-8.538;2022-07-23T12:13:27;101312.3;;;30.9;27.9
72124;BME280;59998;37.126;-8.538;2022-07-23T12:18:16;101311.0;;;30.8;26.5
72124;BME280;59998;37.126;-8.538;2022-07-23T12:23:05;101311.3;;;30.7;28.5
72124;BME280;59998;37.126;-8.538;2022-07-23T12:28:02;101310.5;;;30.7;30.0
72124;BME280;59998;37.126;-8.538;2022-07-23T12:32:50;101305.6;;;30.6;29.1
72124;BME280;59998;37.126;-8.538;2022-07-23T12:37:37;101308.5;;;30.9;29.7
72124;BME280;59998;37.126;-8.538;2022-07-23T12:42:24;101296.3;;;31.0;29.5
72124;BME280;59998;37.126;-8.538;2022-07-23T12:47:11;101306.5;;;31.2;28.6
72124;BME280;59998;37.126;-8.538;2022-07-23T12:51:59;101296.3;;;31.0;28.6
72124;BME280;59998;37.126;-8.538;2022-07-23T12:56:45;101285.0;;;31.1;27.7
72124;BME280;59998;37.126;-8.538;2022-07-23T13:01:33;101285.9;;;31.2;27.3
72124;BME280;59998;37.126;-8.538;2022-07-23T13:06:20;101280.8;;;31.4;26.8
72124;BME280;59998;37.126;-8.538;2022-07-23T13:11:09;101282.9;;;31.4;26.6
72124;BME280;59998;37.126;-8.538;2022-07-23T13:15:56;101279.9;;;31.4;27.4
72124;BME280;59998;37.126;-8.538;2022-07-23T13:20:45;101277.6;;;31.4;27.7
72124;BME280;59998;37.126;-8.538;2022-07-23T13:25:32;101270.1;;;31.5;27.5
72124;BME280;59998;37.126;-8.538;2022-07-23T13:30:18;101276.2;;;31.5;28.4
72124;BME280;59998;37.126;-8.538;2022-07-23T13:35:05;101274.5;;;31.3;28.6
72124;BME280;59998;37.126;-8.538;2022-07-23T13:39:54;101265.8;;;31.3;29.1
72124;BME280;59998;37.126;-8.538;2022-07-23T13:44:40;101270.7;;;31.3;28.8
72124;BME280;59998;37.126;-8.538;2022-07-23T13:49:26;101268.1;;;31.0;29.6
72124;BME280;59998;37.126;-8.538;2022-07-23T13:54:12;101264.1;;;31.0;30.0
72124;BME280;59998;37.126;-8.538;2022-07-23T13:58:59;101261.1;;;31.0;31.7
72124;BME280;59998;37.126;-8.538;2022-07-23T14:03:45;101253.5;;;31.2;32.0
72124;BME280;59998;37.126;-8.538;2022-07-23T14:08:31;101251.9;;;31.2;31.0
72124;BME280;59998;37.126;-8.538;2022-07-23T14:13:17;101254.6;;;31.4;31.0
72124;BME280;59998;37.126;-8.538;2022-07-23T14:18:03;101247.2;;;31.1;31.5
72124;BME280;59998;37.126;-8.538;2022-07-23T14:22:50;101244.6;;;31.4;31.0
72124;BME280;59998;37.126;-8.538;2022-07-23T14:27:37;101241.0;;;31.5;30.5
72124;BME280;59998;37.126;-8.538;2022-07-23T14:32:26;101234.0;;;31.6;31.9
72124;BME280;59998;37.126;-8.538;2022-07-23T14:37:12;101244.1;;;31.6;32.8
72124;BME280;59998;37.126;-8.538;2022-07-23T14:41:58;101240.5;;;31.4;32.6
72124;BME280;59998;37.126;-8.538;2022-07-23T14:46:45;101238.5;;;31.4;32.5
72124;BME280;59998;37.126;-8.538;2022-07-23T14:51:31;101232.2;;;31.4;33.2
72124;BME280;59998;37.126;-8.538;2022-07-23T14:56:18;101237.0;;;31.4;34.3
72124;BME280;59998;37.126;-8.538;2022-07-23T15:01:04;101228.1;;;31.5;33.2
72124;BME280;59998;37.126;-8.538;2022-07-23T15:05:50;101228.7;;;31.7;32.3
72124;BME280;59998;37.126;-8.538;2022-07-23T15:10:37;101218.4;;;31.9;31.0
72124;BME280;59998;37.126;-8.538;2022-07-23T15:15:23;101211.1;;;32.1;31.6
72124;BME280;59998;37.126;-8.538;2022-07-23T15:20:11;101210.2;;;32.0;31.3
72124;BME280;59998;37.126;-8.538;2022-07-23T15:24:57;101207.5;;;32.0;31.6
72124;BME280;59998;37.126;-8.538;2022-07-23T15:29:44;101208.8;;;32.1;31.9
72124;BME280;59998;37.126;-8.538;2022-07-23T15:34:30;101213.9;;;32.1;33.5
72124;BME280;59998;37.126;-8.538;2022-07-23T15:39:16;101213.0;;;32.2;33.2
72124;BME280;59998;37.126;-8.538;2022-07-23T15:44:05;101204.9;;;32.2;28.9
72124;BME280;59998;37.126;-8.538;2022-07-23T15:48:52;101205.9;;;32.3;27.2
72124;BME280;59998;37.126;-8.538;2022-07-23T15:53:38;101193.2;;;32.5;24.3
72124;BME280;59998;37.126;-8.538;2022-07-23T15:58:24;101202.9;;;33.0;22.6
72124;BME280;59998;37.126;-8.538;2022-07-23T16:03:11;101199.3;;;33.0;27.9
72124;BME280;59998;37.126;-8.538;2022-07-23T16:07:57;101206.4;;;32.8;30.2
72124;BME280;59998;37.126;-8.538;2022-07-23T16:12:46;101213.7;;;32.7;31.0
72124;BME280;59998;37.126;-8.538;2022-07-23T16:17:32;101216.2;;;32.8;30.5
72124;BME280;59998;37.126;-8.538;2022-07-23T16:22:18;101221.7;;;32.9;30.2
72124;BME280;59998;37.126;-8.538;2022-07-23T16:27:04;101207.0;;;33.1;30.0
72124;BME280;59998;37.126;-8.538;2022-07-23T16:31:50;101215.8;;;33.1;29.5
72124;BME280;59998;37.126;-8.538;2022-07-23T16:36:36;101209.0;;;33.2;29.9
72124;BME280;59998;37.126;-8.538;2022-07-23T16:41:25;101211.0;;;33.1;29.4
72124;BME280;59998;37.126;-8.538;2022-07-23T16:46:12;101203.6;;;33.1;30.1
72124;BME280;59998;37.126;-8.538;2022-07-23T16:50:58;101203.4;;;33.1;31.1
72124;BME280;59998;37.126;-8.538;2022-07-23T16:55:44;101190.3;;;32.8;31.6
72124;BME280;59998;37.126;-8.538;2022-07-23T17:00:33;101193.4;;;33.0;30.0
72124;BME280;59998;37.126;-8.538;2022-07-23T17:05:22;101177.2;;;33.4;28.9
72124;BME280;59998;37.126;-8.538;2022-07-23T17:10:09;101185.2;;;33.7;27.7
72124;BME280;59998;37.126;-8.538;2022-07-23T17:14:56;101170.0;;;34.3;24.5
72124;BME280;59998;37.126;-8.538;2022-07-23T17:19:45;101165.8;;;34.9;22.1
72124;BME280;59998;37.126;-8.538;2022-07-23T17:24:32;101162.7;;;35.3;21.7
72124;BME280;59998;37.126;-8.538;2022-07-23T17:29:18;101155.1;;;35.6;20.5
72124;BME280;59998;37.126;-8.538;2022-07-23T17:34:05;101163.3;;;35.7;19.6
72124;BME280;59998;37.126;-8.538;2022-07-23T17:38:51;101150.2;;;35.7;19.7
72124;BME280;59998;37.126;-8.538;2022-07-23T17:43:37;101153.3;;;35.8;19.2
72124;BME280;59998;37.126;-8.538;2022-07-23T17:48:24;101156.7;;;35.8;19.2
72124;BME280;59998;37.126;-8.538;2022-07-23T17:53:10;101157.1;;;35.7;19.0
72124;BME280;59998;37.126;-8.538;2022-07-23T17:57:56;101160.6;;;35.5;18.9
72124;BME280;59998;37.126;-8.538;2022-07-23T18:02:42;101167.8;;;35.5;19.0
72124;BME280;59998;37.126;-8.538;2022-07-23T18:07:29;101169.5;;;35.5;19.2
72124;BME280;59998;37.126;-8.538;2022-07-23T18:12:18;101163.3;;;35.4;19.2
72124;BME280;59998;37.126;-8.538;2022-07-23T18:17:09;101178.6;;;35.4;19.1
72124;BME280;59998;37.126;-8.538;2022-07-23T18:21:55;101180.3;;;35.3;18.9
72124;BME280;59998;37.126;-8.538;2022-07-23T18:26:42;101176.5;;;35.2;19.0
72124;BME280;59998;37.126;-8.538;2022-07-23T18:31:29;101173.8;;;35.2;18.4
72124;BME280;59998;37.126;-8.538;2022-07-23T18:36:15;101173.4;;;35.0;17.9
72124;BME280;59998;37.126;-8.538;2022-07-23T18:41:01;101172.8;;;34.9;17.9
72124;BME280;59998;37.126;-8.538;2022-07-23T18:45:48;101176.0;;;34.8;17.5
72124;BME280;59998;37.126;-8.538;2022-07-23T18:50:35;101176.5;;;34.7;17.8
72124;BME280;59998;37.126;-8.538;2022-07-23T18:55:21;101179.1;;;34.5;17.6
72124;BME280;59998;37.126;-8.538;2022-07-23T19:00:08;101182.9;;;34.4;18.2
72124;BME280;59998;37.126;-8.538;2022-07-23T19:04:55;101187.8;;;34.2;17.9
72124;BME280;59998;37.126;-8.538;2022-07-23T19:09:41;101183.6;;;33.9;17.8
72124;BME280;59998;37.126;-8.538;2022-07-23T19:14:28;101182.4;;;33.7;18.2
72124;BME280;59998;37.126;-8.538;2022-07-23T21:30:32;101286.8;;;32.2;15.8
72124;BME280;59998;37.126;-8.538;2022-07-23T21:35:16;101286.8;;;31.9;15.8
72124;BME280;59998;37.126;-8.538;2022-07-23T21:40:02;101288.0;;;31.5;16.1
72124;BME280;59998;37.126;-8.538;2022-07-23T21:44:49;101291.9;;;31.2;16.3
72124;BME280;59998;37.126;-8.538;2022-07-23T21:49:35;101285.7;;;31.0;16.6
